Doris Moran — WRU2125 — position and weather

sailwx.info

Track history (hours):
 
Tides and Currents Weather Stations Pressure Air Temp Water Temp Dewpoint Dewpoint Depression Visibility Wind Speed Wind Dir Waves Ship Positions

Doris Moran

Owner: MORAN TOWING CORPORATION, New Canaan, CT. More information available from US FCC via Universal Licensing System and Coast Guard Vessel Documentation Center.

Last reported at 2014-Oct-31 19:10 UTC. Time now 2014-Nov-01 04:48 UTC.
Position N 40°48' W 073°59'.

Length 36 m; draft 5.3 m.

Type: Other ship. MMSI: 366939790.

Date/timePositionNaut miles runAvg speedWind from/ knotsBaromVisibWave heightAir tempDewpointWater temp
2014-Oct-31 19:10N 40°48' W 073°59'812.8
2014-Oct-31 18:33N 40°40' W 074°03'4 2.0
2014-Oct-31 16:31N 40°38' W 074°08'0 0.0
2014-Oct-31 15:28N 40°38' W 074°08'0 0.0
2014-Oct-31 14:21N 40°38' W 074°08'1 0.5
2014-Oct-31 12:33N 40°39' W 074°07'1 0.9
2014-Oct-31 11:33N 40°38' W 074°08'3 3.1
2014-Oct-31 10:33N 40°40' W 074°04'1 0.7
2014-Oct-31 09:33N 40°40' W 074°05'1 1.4
2014-Oct-31 08:33N 40°39' W 074°05'7 6.6
2014-Oct-31 07:33N 40°35' W 074°13'1 1.2
2014-Oct-31 06:24N 40°36' W 074°12'4 4.6
2014-Oct-31 05:33N 40°39' W 074°08'0 0.2
2014-Oct-31 04:33N 40°38' W 074°08'0 0.0
2014-Oct-31 03:33N 40°38' W 074°08'1 0.8
2014-Oct-31 02:33N 40°39' W 074°07'0 0.2
2014-Oct-31 01:34N 40°39' W 074°07'0 0.0
2014-Oct-31 00:33N 40°39' W 074°07'1 1.1
2014-Oct-30 23:33N 40°39' W 074°05'2 2.1
2014-Oct-30 22:33N 40°38' W 074°08'0 0.0
2014-Oct-30 21:33N 40°38' W 074°08'0 0.0
2014-Oct-30 20:33N 40°38' W 074°08'0 0.0
2014-Oct-30 19:33N 40°38' W 074°08'0 0.0
2014-Oct-30 18:33N 40°38' W 074°08'0 0.0
2014-Oct-30 17:34N 40°38' W 074°08'0 0.0
2014-Oct-30 16:34N 40°38' W 074°08'0 0.0
2014-Oct-30 15:33N 40°38' W 074°08'0 0.0
2014-Oct-30 14:34N 40°38' W 074°08'2 1.6
2014-Oct-30 13:33N 40°40' W 074°09'3 3.2
2014-Oct-30 12:34N 40°39' W 074°05'3 2.5
2014-Oct-30 11:33N 40°38' W 074°08'0 0.0
2014-Oct-30 10:33N 40°38' W 074°08'3 3.0
2014-Oct-30 09:33N 40°38' W 074°04'1 1.0
2014-Oct-30 08:33N 40°39' W 074°05'2 2.3
2014-Oct-30 07:32N 40°38' W 074°08'0 0.0
2014-Oct-30 06:33N 40°38' W 074°08'0 0.0
2014-Oct-30 05:33N 40°38' W 074°08'0 0.0
2014-Oct-30 04:33N 40°38' W 074°08'0 0.0
2014-Oct-30 03:33N 40°38' W 074°08'0 0.0
2014-Oct-30 02:33N 40°38' W 074°08'3 3.5
2014-Oct-30 01:33N 40°42' W 074°09'4 3.9
2014-Oct-30 00:33N 40°39' W 074°05'5 4.6
2014-Oct-29 23:34N 40°41' W 074°00'6 6.4
2014-Oct-29 22:33N 40°38' W 074°08'0 0.0
2014-Oct-29 21:33N 40°38' W 074°08'0 0.0
2014-Oct-29 20:29N 40°38' W 074°08'0 0.0
2014-Oct-29 19:33N 40°38' W 074°08'0 0.0
2014-Oct-29 18:33N 40°38' W 074°08'0 0.0
2014-Oct-29 13:15N 40°38' W 074°08'0 0.0
2014-Oct-29 12:32N 40°38' W 074°08'0 0.0
2014-Oct-29 11:31N 40°38' W 074°08'2 2.1
2014-Oct-29 10:33N 40°40' W 074°08'1 0.7
2014-Oct-29 09:32N 40°41' W 074°09'3 2.6
2014-Oct-29 08:33N 40°39' W 074°08'0 0.1
2014-Oct-29 07:33N 40°38' W 074°08'0 0.0
2014-Oct-29 06:33N 40°38' W 074°08'0 0.0
2014-Oct-29 05:33N 40°38' W 074°08'0 0.0
2014-Oct-29 04:33N 40°38' W 074°08'0 0.0
2014-Oct-29 03:33N 40°38' W 074°08'6 6.4
2014-Oct-29 02:33N 40°41' W 074°00'5 4.7
2014-Oct-29 01:33N 40°39' W 074°06'4 3.9
2014-Oct-29 00:33N 40°42' W 074°09'4 4.1
2014-Oct-28 23:34N 40°38' W 074°12'3 2.8
2014-Oct-28 22:34N 40°39' W 074°08'0 0.2
2014-Oct-28 21:33N 40°38' W 074°08'0 0.0
2014-Oct-28 20:32N 40°38' W 074°08'0 0.0
2014-Oct-28 19:33N 40°38' W 074°08'0 0.0
2014-Oct-28 18:33N 40°38' W 074°08'3 3.3
2014-Oct-28 17:33N 40°38' W 074°12'0 0.0
2014-Oct-28 16:31N 40°38' W 074°12'3 3.5
2014-Oct-28 15:33N 40°38' W 074°08'0 0.0
2014-Oct-28 14:34N 40°38' W 074°08'0 0.0
2014-Oct-28 13:34N 40°38' W 074°08'0 0.1
2014-Oct-28 12:33N 40°39' W 074°08'2 2.0
2014-Oct-28 11:34N 40°41' W 074°08'2 2.1
2014-Oct-28 10:33N 40°39' W 074°07'1 0.8
2014-Oct-28 09:33N 40°38' W 074°08'0 0.0
2014-Oct-28 08:33N 40°38' W 074°08'0 0.0
2014-Oct-28 07:33N 40°38' W 074°08'0 0.0
2014-Oct-28 06:33N 40°38' W 074°08'0 0.0
2014-Oct-28 05:23N 40°38' W 074°08'0 0.0
2014-Oct-28 04:24N 40°38' W 074°08'0 0.0
2014-Oct-28 03:22N 40°38' W 074°08'0 0.0
2014-Oct-28 02:27N 40°38' W 074°08'0 0.0
2014-Oct-28 01:15N 40°38' W 074°08'0 0.0
2014-Oct-28 00:32N 40°38' W 074°08'0 0.0
2014-Oct-27 23:16N 40°38' W 074°08'0 0.0
2014-Oct-27 22:32N 40°38' W 074°08'3 3.0
2014-Oct-27 21:34N 40°38' W 074°04'1 1.2
2014-Oct-27 20:33N 40°39' W 074°05'2 1.8
2014-Oct-27 19:27N 40°38' W 074°08'0 0.0
2014-Oct-27 18:22N 40°38' W 074°08'0 0.0
2014-Oct-27 17:31N 40°38' W 074°08'0 0.3
2014-Oct-27 16:33N 40°39' W 074°08'3 2.8
2014-Oct-27 15:26N 40°38' W 074°12'2 1.9
2014-Oct-27 14:28N 40°39' W 074°10'5 5.7
2014-Oct-27 13:34N 40°38' W 074°03'3 2.5
2014-Oct-27 12:33N 40°39' W 074°06'2 1.9
2014-Oct-27 11:33N 40°39' W 074°09'2 1.8
2014-Oct-27 10:33N 40°41' W 074°09'2 2.3
2014-Oct-27 09:28N 40°39' W 074°09'1 0.8
2014-Oct-27 08:33N 40°38' W 074°08'0 0.0
2014-Oct-27 07:33N 40°38' W 074°08'0 0.0
2014-Oct-27 06:33N 40°38' W 074°08'0 0.0
2014-Oct-27 05:33N 40°38' W 074°08'0 0.0
2014-Oct-27 04:33N 40°38' W 074°08'0 0.0
2014-Oct-27 03:23N 40°38' W 074°08'0 0.0
2014-Oct-27 01:32N 40°38' W 074°08'0 0.0
2014-Oct-27 00:33N 40°38' W 074°08'0 0.0
2014-Oct-26 23:31N 40°38' W 074°08'0 0.0
2014-Oct-26 22:29N 40°38' W 074°08'1 1.1
2014-Oct-26 21:33N 40°39' W 074°07'8 8.5
2014-Oct-26 20:33N 40°46' W 074°00'3 0.1
2014-Oct-25 23:30N 40°48' W 073°59'6 6.8
2014-Oct-25 22:34N 40°42' W 074°02'6 5.6
2014-Oct-25 21:29N 40°39' W 074°08'0 0.1
2014-Oct-25 20:25N 40°38' W 074°08'0 0.0
2014-Oct-25 19:33N 40°38' W 074°08'0 0.0
2014-Oct-25 18:34N 40°38' W 074°08'0 0.0
2014-Oct-25 17:34N 40°38' W 074°08'0 0.0
2014-Oct-25 16:33N 40°38' W 074°08'0 0.0
2014-Oct-25 15:34N 40°38' W 074°08'0 0.0
2014-Oct-25 14:32N 40°38' W 074°08'6 6.5
2014-Oct-25 13:33N 40°41' W 074°00'1 1.1
2014-Oct-25 12:33N 40°42' W 074°01'4 4.0
2014-Oct-25 11:34N 40°46' W 074°00'5 5.1
2014-Oct-25 10:34N 40°41' W 074°02'5 4.9
2014-Oct-25 09:33N 40°38' W 074°08'0 0.0
2014-Oct-25 08:33N 40°38' W 074°08'0 0.0
2014-Oct-25 07:33N 40°38' W 074°08'0 0.0
2014-Oct-25 06:34N 40°38' W 074°08'1 1.3
2014-Oct-25 05:33N 40°40' W 074°09'1 1.4
2014-Oct-25 04:33N 40°39' W 074°07'0 0.1
2014-Oct-25 03:33N 40°39' W 074°07'3 2.8
2014-Oct-25 02:33N 40°41' W 074°09'3 2.5
2014-Oct-25 01:31N 40°39' W 074°08'1 1.2
2014-Oct-25 00:34N 40°39' W 074°07'0 0.0
2014-Oct-24 23:34N 40°39' W 074°07'0 0.0
2014-Oct-24 22:34N 40°39' W 074°07'1 0.7
2014-Oct-24 21:34N 40°39' W 074°06'5112.2
2014-Oct-24 17:25N 39°48' W 074°02'1113.2
2014-Oct-24 16:33N 39°37' W 074°07'  
Track history (hours):
 
Tides and Currents Weather Stations Pressure Air Temp Water Temp Dewpoint Dewpoint Depression Visibility Wind Speed Wind Dir Waves Ship Positions

Doris Moran

Owner: MORAN TOWING CORPORATION, New Canaan, CT. More information available from US FCC via Universal Licensing System and Coast Guard Vessel Documentation Center.

Last reported at 2014-Oct-31 19:10 UTC. Time now 2014-Nov-01 04:48 UTC.
Position N 40°48' W 073°59'.

Length 36 m; draft 5.3 m.

Type: Other ship. MMSI: 366939790.

Date/timePositionNaut miles runAvg speedWind from/ knotsBaromVisibWave heightAir tempDewpointWater temp
2014-Oct-31 19:10N 40°48' W 073°59'812.8
2014-Oct-31 18:33N 40°40' W 074°03'4 2.0
2014-Oct-31 16:31N 40°38' W 074°08'0 0.0
2014-Oct-31 15:28N 40°38' W 074°08'0 0.0
2014-Oct-31 14:21N 40°38' W 074°08'1 0.5
2014-Oct-31 12:33N 40°39' W 074°07'1 0.9
2014-Oct-31 11:33N 40°38' W 074°08'3 3.1
2014-Oct-31 10:33N 40°40' W 074°04'1 0.7
2014-Oct-31 09:33N 40°40' W 074°05'1 1.4
2014-Oct-31 08:33N 40°39' W 074°05'7 6.6
2014-Oct-31 07:33N 40°35' W 074°13'1 1.2
2014-Oct-31 06:24N 40°36' W 074°12'4 4.6
2014-Oct-31 05:33N 40°39' W 074°08'0 0.2
2014-Oct-31 04:33N 40°38' W 074°08'0 0.0
2014-Oct-31 03:33N 40°38' W 074°08'1 0.8
2014-Oct-31 02:33N 40°39' W 074°07'0 0.2
2014-Oct-31 01:34N 40°39' W 074°07'0 0.0
2014-Oct-31 00:33N 40°39' W 074°07'1 1.1
2014-Oct-30 23:33N 40°39' W 074°05'2 2.1
2014-Oct-30 22:33N 40°38' W 074°08'0 0.0
2014-Oct-30 21:33N 40°38' W 074°08'0 0.0
2014-Oct-30 20:33N 40°38' W 074°08'0 0.0
2014-Oct-30 19:33N 40°38' W 074°08'0 0.0
2014-Oct-30 18:33N 40°38' W 074°08'0 0.0
2014-Oct-30 17:34N 40°38' W 074°08'0 0.0
2014-Oct-30 16:34N 40°38' W 074°08'0 0.0
2014-Oct-30 15:33N 40°38' W 074°08'0 0.0
2014-Oct-30 14:34N 40°38' W 074°08'2 1.6
2014-Oct-30 13:33N 40°40' W 074°09'3 3.2
2014-Oct-30 12:34N 40°39' W 074°05'3 2.5
2014-Oct-30 11:33N 40°38' W 074°08'0 0.0
2014-Oct-30 10:33N 40°38' W 074°08'3 3.0
2014-Oct-30 09:33N 40°38' W 074°04'1 1.0
2014-Oct-30 08:33N 40°39' W 074°05'2 2.3
2014-Oct-30 07:32N 40°38' W 074°08'0 0.0
2014-Oct-30 06:33N 40°38' W 074°08'0 0.0
2014-Oct-30 05:33N 40°38' W 074°08'0 0.0
2014-Oct-30 04:33N 40°38' W 074°08'0 0.0
2014-Oct-30 03:33N 40°38' W 074°08'0 0.0
2014-Oct-30 02:33N 40°38' W 074°08'3 3.5
2014-Oct-30 01:33N 40°42' W 074°09'4 3.9
2014-Oct-30 00:33N 40°39' W 074°05'5 4.6
2014-Oct-29 23:34N 40°41' W 074°00'6 6.4
2014-Oct-29 22:33N 40°38' W 074°08'0 0.0
2014-Oct-29 21:33N 40°38' W 074°08'0 0.0
2014-Oct-29 20:29N 40°38' W 074°08'0 0.0
2014-Oct-29 19:33N 40°38' W 074°08'0 0.0
2014-Oct-29 18:33N 40°38' W 074°08'0 0.0
2014-Oct-29 13:15N 40°38' W 074°08'0 0.0
2014-Oct-29 12:32N 40°38' W 074°08'0 0.0
2014-Oct-29 11:31N 40°38' W 074°08'2 2.1
2014-Oct-29 10:33N 40°40' W 074°08'1 0.7
2014-Oct-29 09:32N 40°41' W 074°09'3 2.6
2014-Oct-29 08:33N 40°39' W 074°08'0 0.1
2014-Oct-29 07:33N 40°38' W 074°08'0 0.0
2014-Oct-29 06:33N 40°38' W 074°08'0 0.0
2014-Oct-29 05:33N 40°38' W 074°08'0 0.0
2014-Oct-29 04:33N 40°38' W 074°08'0 0.0
2014-Oct-29 03:33N 40°38' W 074°08'6 6.4
2014-Oct-29 02:33N 40°41' W 074°00'5 4.7
2014-Oct-29 01:33N 40°39' W 074°06'4 3.9
2014-Oct-29 00:33N 40°42' W 074°09'4 4.1
2014-Oct-28 23:34N 40°38' W 074°12'3 2.8
2014-Oct-28 22:34N 40°39' W 074°08'0 0.2
2014-Oct-28 21:33N 40°38' W 074°08'0 0.0
2014-Oct-28 20:32N 40°38' W 074°08'0 0.0
2014-Oct-28 19:33N 40°38' W 074°08'0 0.0
2014-Oct-28 18:33N 40°38' W 074°08'3 3.3
2014-Oct-28 17:33N 40°38' W 074°12'0 0.0
2014-Oct-28 16:31N 40°38' W 074°12'3 3.5
2014-Oct-28 15:33N 40°38' W 074°08'0 0.0
2014-Oct-28 14:34N 40°38' W 074°08'0 0.0
2014-Oct-28 13:34N 40°38' W 074°08'0 0.1
2014-Oct-28 12:33N 40°39' W 074°08'2 2.0
2014-Oct-28 11:34N 40°41' W 074°08'2 2.1
2014-Oct-28 10:33N 40°39' W 074°07'1 0.8
2014-Oct-28 09:33N 40°38' W 074°08'0 0.0
2014-Oct-28 08:33N 40°38' W 074°08'0 0.0
2014-Oct-28 07:33N 40°38' W 074°08'0 0.0
2014-Oct-28 06:33N 40°38' W 074°08'0 0.0
2014-Oct-28 05:23N 40°38' W 074°08'0 0.0
2014-Oct-28 04:24N 40°38' W 074°08'0 0.0
2014-Oct-28 03:22N 40°38' W 074°08'0 0.0
2014-Oct-28 02:27N 40°38' W 074°08'0 0.0
2014-Oct-28 01:15N 40°38' W 074°08'0 0.0
2014-Oct-28 00:32N 40°38' W 074°08'0 0.0
2014-Oct-27 23:16N 40°38' W 074°08'0 0.0
2014-Oct-27 22:32N 40°38' W 074°08'3 3.0
2014-Oct-27 21:34N 40°38' W 074°04'1 1.2
2014-Oct-27 20:33N 40°39' W 074°05'2 1.8
2014-Oct-27 19:27N 40°38' W 074°08'0 0.0
2014-Oct-27 18:22N 40°38' W 074°08'0 0.0
2014-Oct-27 17:31N 40°38' W 074°08'0 0.3
2014-Oct-27 16:33N 40°39' W 074°08'3 2.8
2014-Oct-27 15:26N 40°38' W 074°12'2 1.9
2014-Oct-27 14:28N 40°39' W 074°10'5 5.7
2014-Oct-27 13:34N 40°38' W 074°03'3 2.5
2014-Oct-27 12:33N 40°39' W 074°06'2 1.9
2014-Oct-27 11:33N 40°39' W 074°09'2 1.8
2014-Oct-27 10:33N 40°41' W 074°09'2 2.3
2014-Oct-27 09:28N 40°39' W 074°09'1 0.8
2014-Oct-27 08:33N 40°38' W 074°08'0 0.0
2014-Oct-27 07:33N 40°38' W 074°08'0 0.0
2014-Oct-27 06:33N 40°38' W 074°08'0 0.0
2014-Oct-27 05:33N 40°38' W 074°08'0 0.0
2014-Oct-27 04:33N 40°38' W 074°08'0 0.0
2014-Oct-27 03:23N 40°38' W 074°08'0 0.0
2014-Oct-27 01:32N 40°38' W 074°08'0 0.0
2014-Oct-27 00:33N 40°38' W 074°08'0 0.0
2014-Oct-26 23:31N 40°38' W 074°08'0 0.0
2014-Oct-26 22:29N 40°38' W 074°08'1 1.1
2014-Oct-26 21:33N 40°39' W 074°07'8 8.5
2014-Oct-26 20:33N 40°46' W 074°00'3 0.1
2014-Oct-25 23:30N 40°48' W 073°59'6 6.8
2014-Oct-25 22:34N 40°42' W 074°02'6 5.6
2014-Oct-25 21:29N 40°39' W 074°08'0 0.1
2014-Oct-25 20:25N 40°38' W 074°08'0 0.0
2014-Oct-25 19:33N 40°38' W 074°08'0 0.0
2014-Oct-25 18:34N 40°38' W 074°08'0 0.0
2014-Oct-25 17:34N 40°38' W 074°08'0 0.0
2014-Oct-25 16:33N 40°38' W 074°08'0 0.0
2014-Oct-25 15:34N 40°38' W 074°08'0 0.0
2014-Oct-25 14:32N 40°38' W 074°08'6 6.5
2014-Oct-25 13:33N 40°41' W 074°00'1 1.1
2014-Oct-25 12:33N 40°42' W 074°01'4 4.0
2014-Oct-25 11:34N 40°46' W 074°00'5 5.1
2014-Oct-25 10:34N 40°41' W 074°02'5 4.9
2014-Oct-25 09:33N 40°38' W 074°08'0 0.0
2014-Oct-25 08:33N 40°38' W 074°08'0 0.0
2014-Oct-25 07:33N 40°38' W 074°08'0 0.0
2014-Oct-25 06:34N 40°38' W 074°08'1 1.3
2014-Oct-25 05:33N 40°40' W 074°09'1 1.4
2014-Oct-25 04:33N 40°39' W 074°07'0 0.1
2014-Oct-25 03:33N 40°39' W 074°07'3 2.8
2014-Oct-25 02:33N 40°41' W 074°09'3 2.5
2014-Oct-25 01:31N 40°39' W 074°08'1 1.2
2014-Oct-25 00:34N 40°39' W 074°07'0 0.0
2014-Oct-24 23:34N 40°39' W 074°07'0 0.0
2014-Oct-24 22:34N 40°39' W 074°07'1 0.7
2014-Oct-24 21:34N 40°39' W 074°06'5112.2
2014-Oct-24 17:25N 39°48' W 074°02'1113.2
2014-Oct-24 16:33N 39°37' W 074°07'  

Dump ship's entire track history